sensor_id;sensor_type;location;lat;lon;timestamp;temperature;humidity
32612;DHT22;19030;49.478;8.986;2023-11-19T00:01:26;7.70;99.90
32612;DHT22;19030;49.478;8.986;2023-11-19T00:03:27;7.70;99.90
32612;DHT22;19030;49.478;8.986;2023-11-19T00:05:28;7.70;99.90
32612;DHT22;19030;49.478;8.986;2023-11-19T00:07:29;7.70;99.90
32612;DHT22;19030;49.478;8.986;2023-11-19T00:09:29;7.70;99.90
32612;DHT22;19030;49.478;8.986;2023-11-19T00:11:30;7.70;99.90
32612;DHT22;19030;49.478;8.986;2023-11-19T00:13:31;7.80;99.90
32612;DHT22;19030;49.478;8.986;2023-11-19T00:15:31;7.70;99.90
32612;DHT22;19030;49.478;8.986;2023-11-19T00:17:32;7.80;99.90
32612;DHT22;19030;49.478;8.986;2023-11-19T00:19:32;7.70;99.90
32612;DHT22;19030;49.478;8.986;2023-11-19T00:21:33;7.70;99.90
32612;DHT22;19030;49.478;8.986;2023-11-19T00:23:33;7.70;99.90
32612;DHT22;19030;49.478;8.986;2023-11-19T00:25:34;7.70;99.90
32612;DHT22;19030;49.478;8.986;2023-11-19T00:27:38;7.80;99.90
32612;DHT22;19030;49.478;8.986;2023-11-19T00:29:38;7.80;99.90
32612;DHT22;19030;49.478;8.986;2023-11-19T00:31:39;7.80;99.90
32612;DHT22;19030;49.478;8.986;2023-11-19T00:33:39;7.80;99.90
32612;DHT22;19030;49.478;8.986;2023-11-19T00:35:40;7.80;99.90
32612;DHT22;19030;49.478;8.986;2023-11-19T00:37:41;7.80;99.90
32612;DHT22;19030;49.478;8.986;2023-11-19T00:39:43;7.80;99.90
32612;DHT22;19030;49.478;8.986;2023-11-19T00:41:44;7.80;99.90
32612;DHT22;19030;49.478;8.986;2023-11-19T00:43:46;7.80;99.90
32612;DHT22;19030;49.478;8.986;2023-11-19T00:45:47;7.80;99.90
32612;DHT22;19030;49.478;8.986;2023-11-19T00:47:50;7.80;99.90
32612;DHT22;19030;49.478;8.986;2023-11-19T00:49:51;7.80;99.90
32612;DHT22;19030;49.478;8.986;2023-11-19T00:51:51;7.90;99.90
32612;DHT22;19030;49.478;8.986;2023-11-19T00:53:52;7.90;99.90
32612;DHT22;19030;49.478;8.986;2023-11-19T00:55:53;7.90;99.90
32612;DHT22;19030;49.478;8.986;2023-11-19T00:57:54;7.90;99.90
32612;DHT22;19030;49.478;8.986;2023-11-19T00:59:56;7.90;99.90
32612;DHT22;19030;49.478;8.986;2023-11-19T01:01:57;7.90;99.90
32612;DHT22;19030;49.478;8.986;2023-11-19T01:03:58;7.90;99.90
32612;DHT22;19030;49.478;8.986;2023-11-19T01:05:58;7.90;99.90
32612;DHT22;19030;49.478;8.986;2023-11-19T01:08:01;7.90;99.90
32612;DHT22;19030;49.478;8.986;2023-11-19T01:10:05;7.90;99.90
32612;DHT22;19030;49.478;8.986;2023-11-19T01:12:06;7.90;99.90
32612;DHT22;19030;49.478;8.986;2023-11-19T01:14:07;7.90;99.90
32612;DHT22;19030;49.478;8.986;2023-11-19T01:16:08;7.90;99.90
32612;DHT22;19030;49.478;8.986;2023-11-19T01:18:10;7.90;99.90
32612;DHT22;19030;49.478;8.986;2023-11-19T01:20:11;7.90;99.90
32612;DHT22;19030;49.478;8.986;2023-11-19T01:22:13;7.90;99.90
32612;DHT22;19030;49.478;8.986;2023-11-19T01:24:14;8.00;99.90
32612;DHT22;19030;49.478;8.986;2023-11-19T01:26:14;7.90;99.90
32612;DHT22;19030;49.478;8.986;2023-11-19T01:28:15;7.90;99.90
32612;DHT22;19030;49.478;8.986;2023-11-19T01:30:16;8.00;99.90
32612;DHT22;19030;49.478;8.986;2023-11-19T01:32:16;7.90;99.90
32612;DHT22;19030;49.478;8.986;2023-11-19T01:34:17;8.00;99.90
32612;DHT22;19030;49.478;8.986;2023-11-19T01:36:17;8.00;99.90
32612;DHT22;19030;49.478;8.986;2023-11-19T01:38:18;7.90;99.90
32612;DHT22;19030;49.478;8.986;2023-11-19T01:40:22;7.90;99.90
32612;DHT22;19030;49.478;8.986;2023-11-19T01:42:22;7.90;99.90
32612;DHT22;19030;49.478;8.986;2023-11-19T01:44:25;8.00;99.90
32612;DHT22;19030;49.478;8.986;2023-11-19T01:46:26;8.00;99.90
32612;DHT22;19030;49.478;8.986;2023-11-19T01:48:27;8.00;99.90
32612;DHT22;19030;49.478;8.986;2023-11-19T01:50:28;8.00;99.90
32612;DHT22;19030;49.478;8.986;2023-11-19T01:52:29;8.00;99.90
32612;DHT22;19030;49.478;8.986;2023-11-19T01:54:29;8.00;99.90
32612;DHT22;19030;49.478;8.986;2023-11-19T01:56:31;7.90;99.90
32612;DHT22;19030;49.478;8.986;2023-11-19T01:58:32;8.00;99.90
32612;DHT22;19030;49.478;8.986;2023-11-19T02:00:33;8.00;99.90
32612;DHT22;19030;49.478;8.986;2023-11-19T02:02:33;8.00;99.90
32612;DHT22;19030;49.478;8.986;2023-11-19T02:04:34;8.00;99.90
32612;DHT22;19030;49.478;8.986;2023-11-19T02:06:38;8.00;99.90
32612;DHT22;19030;49.478;8.986;2023-11-19T02:08:41;8.00;99.90
32612;DHT22;19030;49.478;8.986;2023-11-19T02:10:42;8.00;99.90
32612;DHT22;19030;49.478;8.986;2023-11-19T02:12:43;8.00;99.90
32612;DHT22;19030;49.478;8.986;2023-11-19T02:14:44;8.00;99.90
32612;DHT22;19030;49.478;8.986;2023-11-19T02:16:45;8.10;99.90
32612;DHT22;19030;49.478;8.986;2023-11-19T02:18:45;8.10;99.90
32612;DHT22;19030;49.478;8.986;2023-11-19T02:20:46;8.00;99.90
32612;DHT22;19030;49.478;8.986;2023-11-19T02:22:47;8.00;99.90
32612;DHT22;19030;49.478;8.986;2023-11-19T02:24:51;8.00;99.90
32612;DHT22;19030;49.478;8.986;2023-11-19T02:27:02;8.00;99.90
32612;DHT22;19030;49.478;8.986;2023-11-19T02:29:06;8.00;99.90
32612;DHT22;19030;49.478;8.986;2023-11-19T02:31:07;8.00;99.90
32612;DHT22;19030;49.478;8.986;2023-11-19T02:33:11;8.00;99.90
32612;DHT22;19030;49.478;8.986;2023-11-19T02:35:11;8.00;99.90
32612;DHT22;19030;49.478;8.986;2023-11-19T02:37:12;8.10;99.90
32612;DHT22;19030;49.478;8.986;2023-11-19T02:39:12;8.10;99.90
32612;DHT22;19030;49.478;8.986;2023-11-19T02:41:14;8.10;99.90
32612;DHT22;19030;49.478;8.986;2023-11-19T02:43:15;8.10;99.90
32612;DHT22;19030;49.478;8.986;2023-11-19T02:45:15;8.10;99.90
32612;DHT22;19030;49.478;8.986;2023-11-19T02:47:16;8.20;99.90
32612;DHT22;19030;49.478;8.986;2023-11-19T02:49:17;8.20;99.90
32612;DHT22;19030;49.478;8.986;2023-11-19T02:51:18;8.20;99.90
32612;DHT22;19030;49.478;8.986;2023-11-19T02:53:19;8.20;99.90
32612;DHT22;19030;49.478;8.986;2023-11-19T02:55:23;8.20;99.90
32612;DHT22;19030;49.478;8.986;2023-11-19T02:57:24;8.30;99.90
32612;DHT22;19030;49.478;8.986;2023-11-19T02:59:25;8.30;99.90
32612;DHT22;19030;49.478;8.986;2023-11-19T03:01:39;8.30;99.90
32612;DHT22;19030;49.478;8.986;2023-11-19T03:03:43;8.30;99.90
32612;DHT22;19030;49.478;8.986;2023-11-19T03:05:49;8.30;99.90
32612;DHT22;19030;49.478;8.986;2023-11-19T03:07:50;8.30;99.90
32612;DHT22;19030;49.478;8.986;2023-11-19T03:09:51;8.40;99.90
32612;DHT22;19030;49.478;8.986;2023-11-19T03:11:51;8.40;99.90
32612;DHT22;19030;49.478;8.986;2023-11-19T03:13:52;8.40;99.90
32612;DHT22;19030;49.478;8.986;2023-11-19T03:15:52;8.40;99.90
32612;DHT22;19030;49.478;8.986;2023-11-19T03:17:54;8.50;99.90
32612;DHT22;19030;49.478;8.986;2023-11-19T03:19:54;8.50;99.90
32612;DHT22;19030;49.478;8.986;2023-11-19T03:21:55;8.50;99.90
32612;DHT22;19030;49.478;8.986;2023-11-19T03:23:55;8.50;99.90
32612;DHT22;19030;49.478;8.986;2023-11-19T03:25:56;8.50;99.90
32612;DHT22;19030;49.478;8.986;2023-11-19T03:27:57;8.60;99.90
32612;DHT22;19030;49.478;8.986;2023-11-19T03:29:58;8.60;99.90
32612;DHT22;19030;49.478;8.986;2023-11-19T03:31:59;8.60;99.90
32612;DHT22;19030;49.478;8.986;2023-11-19T03:34:00;8.70;99.90
32612;DHT22;19030;49.478;8.986;2023-11-19T03:36:00;8.70;99.90
32612;DHT22;19030;49.478;8.986;2023-11-19T03:38:01;8.70;99.90
32612;DHT22;19030;49.478;8.986;2023-11-19T03:40:01;8.80;99.90
32612;DHT22;19030;49.478;8.986;2023-11-19T03:42:02;8.80;99.90
32612;DHT22;19030;49.478;8.986;2023-11-19T03:44:03;8.80;99.90
32612;DHT22;19030;49.478;8.986;2023-11-19T03:46:04;8.90;99.90
32612;DHT22;19030;49.478;8.986;2023-11-19T03:48:05;8.90;99.90
32612;DHT22;19030;49.478;8.986;2023-11-19T03:50:07;8.90;99.90
32612;DHT22;19030;49.478;8.986;2023-11-19T03:52:10;9.00;99.90
32612;DHT22;19030;49.478;8.986;2023-11-19T03:54:11;9.00;99.90
32612;DHT22;19030;49.478;8.986;2023-11-19T03:56:12;9.00;99.90
32612;DHT22;19030;49.478;8.986;2023-11-19T03:58:13;9.10;99.90
32612;DHT22;19030;49.478;8.986;2023-11-19T04:00:14;9.20;99.90
32612;DHT22;19030;49.478;8.986;2023-11-19T04:02:15;9.20;99.90
32612;DHT22;19030;49.478;8.986;2023-11-19T04:04:16;9.20;99.90
32612;DHT22;19030;49.478;8.986;2023-11-19T04:06:17;9.30;99.90
32612;DHT22;19030;49.478;8.986;2023-11-19T04:08:18;9.30;99.90
32612;DHT22;19030;49.478;8.986;2023-11-19T04:10:19;9.30;99.90
32612;DHT22;19030;49.478;8.986;2023-11-19T04:12:20;9.40;99.90
32612;DHT22;19030;49.478;8.986;2023-11-19T04:14:22;9.40;99.90
32612;DHT22;19030;49.478;8.986;2023-11-19T04:16:26;9.50;99.90
32612;DHT22;19030;49.478;8.986;2023-11-19T04:18:29;9.40;99.90
32612;DHT22;19030;49.478;8.986;2023-11-19T04:20:29;9.50;99.90
32612;DHT22;19030;49.478;8.986;2023-11-19T04:22:32;9.50;99.90
32612;DHT22;19030;49.478;8.986;2023-11-19T04:24:32;9.60;99.90
32612;DHT22;19030;49.478;8.986;2023-11-19T04:26:33;9.60;99.90
32612;DHT22;19030;49.478;8.986;2023-11-19T04:28:34;9.60;99.90
32612;DHT22;19030;49.478;8.986;2023-11-19T04:30:35;9.60;99.90
32612;DHT22;19030;49.478;8.986;2023-11-19T04:32:36;9.60;99.90
32612;DHT22;19030;49.478;8.986;2023-11-19T04:34:36;9.70;99.90
32612;DHT22;19030;49.478;8.986;2023-11-19T04:36:38;9.70;99.90
32612;DHT22;19030;49.478;8.986;2023-11-19T04:38:39;9.80;99.90
32612;DHT22;19030;49.478;8.986;2023-11-19T04:40:40;9.80;99.90
32612;DHT22;19030;49.478;8.986;2023-11-19T04:42:40;9.90;99.90
32612;DHT22;19030;49.478;8.986;2023-11-19T04:44:43;9.90;99.90
32612;DHT22;19030;49.478;8.986;2023-11-19T04:46:44;9.90;99.90
32612;DHT22;19030;49.478;8.986;2023-11-19T04:48:44;9.90;99.90
32612;DHT22;19030;49.478;8.986;2023-11-19T04:50:45;9.90;99.90
32612;DHT22;19030;49.478;8.986;2023-11-19T04:52:45;9.90;99.90
32612;DHT22;19030;49.478;8.986;2023-11-19T04:54:46;10.00;99.90
32612;DHT22;19030;49.478;8.986;2023-11-19T04:56:48;10.00;99.90
32612;DHT22;19030;49.478;8.986;2023-11-19T04:58:49;10.00;99.90
32612;DHT22;19030;49.478;8.986;2023-11-19T05:00:49;10.10;99.90
32612;DHT22;19030;49.478;8.986;2023-11-19T05:02:50;10.00;99.90
32612;DHT22;19030;49.478;8.986;2023-11-19T05:04:50;10.10;99.90
32612;DHT22;19030;49.478;8.986;2023-11-19T05:06:51;10.10;99.90
32612;DHT22;19030;49.478;8.986;2023-11-19T05:08:51;10.10;99.90
32612;DHT22;19030;49.478;8.986;2023-11-19T05:10:52;10.10;99.90
32612;DHT22;19030;49.478;8.986;2023-11-19T05:12:53;10.20;99.90
32612;DHT22;19030;49.478;8.986;2023-11-19T05:14:53;10.20;99.90
32612;DHT22;19030;49.478;8.986;2023-11-19T05:16:54;10.30;99.90
32612;DHT22;19030;49.478;8.986;2023-11-19T05:18:54;10.30;99.90
32612;DHT22;19030;49.478;8.986;2023-11-19T05:20:55;10.40;99.90
32612;DHT22;19030;49.478;8.986;2023-11-19T05:22:55;10.40;99.90
32612;DHT22;19030;49.478;8.986;2023-11-19T05:24:56;10.50;99.90
32612;DHT22;19030;49.478;8.986;2023-11-19T05:26:57;10.50;99.90
32612;DHT22;19030;49.478;8.986;2023-11-19T05:28:58;10.40;99.90
32612;DHT22;19030;49.478;8.986;2023-11-19T05:30:59;10.50;99.90
32612;DHT22;19030;49.478;8.986;2023-11-19T05:32:59;10.50;99.90
32612;DHT22;19030;49.478;8.986;2023-11-19T05:35:01;10.50;99.90
32612;DHT22;19030;49.478;8.986;2023-11-19T05:37:02;10.50;99.90
32612;DHT22;19030;49.478;8.986;2023-11-19T05:39:03;10.50;99.90
32612;DHT22;19030;49.478;8.986;2023-11-19T05:41:05;10.60;99.90
32612;DHT22;19030;49.478;8.986;2023-11-19T05:43:06;10.60;99.90
32612;DHT22;19030;49.478;8.986;2023-11-19T05:45:07;10.60;99.90
32612;DHT22;19030;49.478;8.986;2023-11-19T05:47:08;10.60;99.90
32612;DHT22;19030;49.478;8.986;2023-11-19T05:49:09;10.60;99.90
32612;DHT22;19030;49.478;8.986;2023-11-19T05:51:09;10.60;99.90
32612;DHT22;19030;49.478;8.986;2023-11-19T05:53:10;10.60;99.90
32612;DHT22;19030;49.478;8.986;2023-11-19T05:55:12;10.70;99.90
32612;DHT22;19030;49.478;8.986;2023-11-19T05:57:14;10.60;99.90
32612;DHT22;19030;49.478;8.986;2023-11-19T05:59:15;10.70;99.90
32612;DHT22;19030;49.478;8.986;2023-11-19T06:01:18;10.70;99.90
32612;DHT22;19030;49.478;8.986;2023-11-19T06:03:18;10.70;99.90
32612;DHT22;19030;49.478;8.986;2023-11-19T06:05:19;10.80;99.90
32612;DHT22;19030;49.478;8.986;2023-11-19T06:07:19;10.80;99.90
32612;DHT22;19030;49.478;8.986;2023-11-19T06:09:21;10.80;99.90
32612;DHT22;19030;49.478;8.986;2023-11-19T06:11:23;10.90;99.90
32612;DHT22;19030;49.478;8.986;2023-11-19T06:13:27;10.90;99.90
32612;DHT22;19030;49.478;8.986;2023-11-19T06:15:28;10.90;99.90
32612;DHT22;19030;49.478;8.986;2023-11-19T06:17:28;10.90;99.90
32612;DHT22;19030;49.478;8.986;2023-11-19T06:19:29;10.90;99.90
32612;DHT22;19030;49.478;8.986;2023-11-19T06:21:29;10.90;99.90
32612;DHT22;19030;49.478;8.986;2023-11-19T06:23:30;10.90;99.90
32612;DHT22;19030;49.478;8.986;2023-11-19T06:25:30;10.90;99.90
32612;DHT22;19030;49.478;8.986;2023-11-19T06:27:31;11.00;99.90
32612;DHT22;19030;49.478;8.986;2023-11-19T06:29:31;11.00;99.90
32612;DHT22;19030;49.478;8.986;2023-11-19T06:31:32;11.00;99.90
32612;DHT22;19030;49.478;8.986;2023-11-19T06:33:32;11.00;99.90
32612;DHT22;19030;49.478;8.986;2023-11-19T06:35:33;11.00;99.90
32612;DHT22;19030;49.478;8.986;2023-11-19T06:37:38;11.00;99.90
32612;DHT22;19030;49.478;8.986;2023-11-19T06:39:39;11.10;99.90
32612;DHT22;19030;49.478;8.986;2023-11-19T06:41:47;11.10;99.90
32612;DHT22;19030;49.478;8.986;2023-11-19T06:43:48;11.10;99.90
32612;DHT22;19030;49.478;8.986;2023-11-19T06:45:49;11.20;99.90
32612;DHT22;19030;49.478;8.986;2023-11-19T06:47:49;11.10;99.90
32612;DHT22;19030;49.478;8.986;2023-11-19T06:49:50;11.20;99.90
32612;DHT22;19030;49.478;8.986;2023-11-19T06:51:50;11.20;99.90
32612;DHT22;19030;49.478;8.986;2023-11-19T06:53:51;11.20;99.90
32612;DHT22;19030;49.478;8.986;2023-11-19T06:55:52;11.20;99.90
32612;DHT22;19030;49.478;8.986;2023-11-19T06:57:52;11.30;99.90
32612;DHT22;19030;49.478;8.986;2023-11-19T06:59:53;11.30;99.90
32612;DHT22;19030;49.478;8.986;2023-11-19T07:01:53;11.30;99.90
32612;DHT22;19030;49.478;8.986;2023-11-19T07:03:54;11.30;99.90
32612;DHT22;19030;49.478;8.986;2023-11-19T07:05:54;11.30;99.90
32612;DHT22;19030;49.478;8.986;2023-11-19T07:07:56;11.30;99.90
32612;DHT22;19030;49.478;8.986;2023-11-19T07:09:56;11.30;99.90
32612;DHT22;19030;49.478;8.986;2023-11-19T07:11:57;11.30;99.90
32612;DHT22;19030;49.478;8.986;2023-11-19T07:13:57;11.30;99.90
32612;DHT22;19030;49.478;8.986;2023-11-19T07:15:58;11.30;99.90
32612;DHT22;19030;49.478;8.986;2023-11-19T07:17:59;11.40;99.90
32612;DHT22;19030;49.478;8.986;2023-11-19T07:19:59;11.40;99.90
32612;DHT22;19030;49.478;8.986;2023-11-19T07:22:00;11.40;99.90
32612;DHT22;19030;49.478;8.986;2023-11-19T07:24:02;11.50;99.90
32612;DHT22;19030;49.478;8.986;2023-11-19T07:26:05;11.50;99.90
32612;DHT22;19030;49.478;8.986;2023-11-19T07:28:08;11.50;99.90
32612;DHT22;19030;49.478;8.986;2023-11-19T07:30:10;11.50;99.90
32612;DHT22;19030;49.478;8.986;2023-11-19T07:32:11;11.60;99.90
32612;DHT22;19030;49.478;8.986;2023-11-19T07:34:13;11.60;99.90
32612;DHT22;19030;49.478;8.986;2023-11-19T07:36:14;11.60;99.90
32612;DHT22;19030;49.478;8.986;2023-11-19T07:38:15;11.60;99.90
32612;DHT22;19030;49.478;8.986;2023-11-19T07:40:15;11.70;99.90
32612;DHT22;19030;49.478;8.986;2023-11-19T07:42:16;11.70;99.90
32612;DHT22;19030;49.478;8.986;2023-11-19T07:44:16;11.80;99.90
32612;DHT22;19030;49.478;8.986;2023-11-19T07:46:17;11.80;99.90
32612;DHT22;19030;49.478;8.986;2023-11-19T07:48:20;11.80;99.90
32612;DHT22;19030;49.478;8.986;2023-11-19T07:50:23;11.80;99.90
32612;DHT22;19030;49.478;8.986;2023-11-19T07:52:25;11.80;99.90
32612;DHT22;19030;49.478;8.986;2023-11-19T07:54:26;11.80;99.90
32612;DHT22;19030;49.478;8.986;2023-11-19T07:56:26;11.80;99.90
32612;DHT22;19030;49.478;8.986;2023-11-19T07:58:27;11.90;99.90
32612;DHT22;19030;49.478;8.986;2023-11-19T08:00:33;11.90;99.90
32612;DHT22;19030;49.478;8.986;2023-11-19T08:02:33;12.00;99.90
32612;DHT22;19030;49.478;8.986;2023-11-19T08:04:34;12.10;99.90
32612;DHT22;19030;49.478;8.986;2023-11-19T08:06:35;12.10;99.90
32612;DHT22;19030;49.478;8.986;2023-11-19T08:08:35;12.10;99.90
32612;DHT22;19030;49.478;8.986;2023-11-19T08:10:38;12.10;99.90
32612;DHT22;19030;49.478;8.986;2023-11-19T08:12:40;12.10;99.90
32612;DHT22;19030;49.478;8.986;2023-11-19T08:14:40;12.10;99.90
32612;DHT22;19030;49.478;8.986;2023-11-19T08:16:41;12.10;99.90
32612;DHT22;19030;49.478;8.986;2023-11-19T08:18:43;12.10;99.90
32612;DHT22;19030;49.478;8.986;2023-11-19T08:20:44;12.10;99.90
32612;DHT22;19030;49.478;8.986;2023-11-19T08:22:45;12.20;99.90
32612;DHT22;19030;49.478;8.986;2023-11-19T08:24:46;12.10;99.90
32612;DHT22;19030;49.478;8.986;2023-11-19T08:26:46;12.10;99.90
32612;DHT22;19030;49.478;8.986;2023-11-19T08:28:47;12.10;99.90
32612;DHT22;19030;49.478;8.986;2023-11-19T08:30:48;12.10;99.90
32612;DHT22;19030;49.478;8.986;2023-11-19T08:32:48;12.10;99.90
32612;DHT22;19030;49.478;8.986;2023-11-19T08:34:49;12.00;99.90
32612;DHT22;19030;49.478;8.986;2023-11-19T08:36:52;12.00;99.90
32612;DHT22;19030;49.478;8.986;2023-11-19T08:38:53;11.90;99.90
32612;DHT22;19030;49.478;8.986;2023-11-19T08:40:54;11.90;99.90
32612;DHT22;19030;49.478;8.986;2023-11-19T08:42:59;11.90;99.90
32612;DHT22;19030;49.478;8.986;2023-11-19T08:45:00;11.90;99.90
32612;DHT22;19030;49.478;8.986;2023-11-19T08:47:00;11.90;99.90
32612;DHT22;19030;49.478;8.986;2023-11-19T08:49:01;11.80;99.90
32612;DHT22;19030;49.478;8.986;2023-11-19T08:51:02;11.90;99.90
32612;DHT22;19030;49.478;8.986;2023-11-19T08:53:02;11.90;99.90
32612;DHT22;19030;49.478;8.986;2023-11-19T08:55:07;11.90;99.90
32612;DHT22;19030;49.478;8.986;2023-11-19T08:57:07;11.90;99.90
32612;DHT22;19030;49.478;8.986;2023-11-19T08:59:09;12.10;99.90
32612;DHT22;19030;49.478;8.986;2023-11-19T09:01:09;12.40;99.90
32612;DHT22;19030;49.478;8.986;2023-11-19T09:03:10;13.20;99.90
32612;DHT22;19030;49.478;8.986;2023-11-19T09:05:10;14.20;99.90
32612;DHT22;19030;49.478;8.986;2023-11-19T09:07:12;14.70;99.90
32612;DHT22;19030;49.478;8.986;2023-11-19T09:09:12;14.60;99.90
32612;DHT22;19030;49.478;8.986;2023-11-19T09:11:14;14.50;99.90
32612;DHT22;19030;49.478;8.986;2023-11-19T09:13:15;14.50;99.90
32612;DHT22;19030;49.478;8.986;2023-11-19T09:15:15;14.40;99.90
32612;DHT22;19030;49.478;8.986;2023-11-19T09:17:17;14.50;99.90
32612;DHT22;19030;49.478;8.986;2023-11-19T09:19:18;15.20;99.90
32612;DHT22;19030;49.478;8.986;2023-11-19T09:21:19;16.70;99.90
32612;DHT22;19030;49.478;8.986;2023-11-19T09:23:19;18.00;99.90
32612;DHT22;19030;49.478;8.986;2023-11-19T09:25:20;18.00;99.90
32612;DHT22;19030;49.478;8.986;2023-11-19T09:27:20;17.70;99.90
32612;DHT22;19030;49.478;8.986;2023-11-19T09:29:21;17.30;99.90
32612;DHT22;19030;49.478;8.986;2023-11-19T09:31:22;17.40;99.90
32612;DHT22;19030;49.478;8.986;2023-11-19T09:33:22;18.20;99.90
32612;DHT22;19030;49.478;8.986;2023-11-19T09:35:23;18.40;99.90
32612;DHT22;19030;49.478;8.986;2023-11-19T09:37:23;18.70;99.90
32612;DHT22;19030;49.478;8.986;2023-11-19T09:39:24;18.30;99.90
32612;DHT22;19030;49.478;8.986;2023-11-19T09:41:26;17.70;99.90
32612;DHT22;19030;49.478;8.986;2023-11-19T09:43:28;17.10;99.90
32612;DHT22;19030;49.478;8.986;2023-11-19T09:45:29;16.40;99.90
32612;DHT22;19030;49.478;8.986;2023-11-19T09:47:32;15.80;99.90
32612;DHT22;19030;49.478;8.986;2023-11-19T09:49:33;15.30;99.90
32612;DHT22;19030;49.478;8.986;2023-11-19T09:51:36;14.90;99.90
32612;DHT22;19030;49.478;8.986;2023-11-19T09:53:37;14.70;99.90
32612;DHT22;19030;49.478;8.986;2023-11-19T09:55:38;14.40;99.90
32612;DHT22;19030;49.478;8.986;2023-11-19T09:57:39;14.20;99.90
32612;DHT22;19030;49.478;8.986;2023-11-19T09:59:41;14.50;99.90
32612;DHT22;19030;49.478;8.986;2023-11-19T10:01:42;15.00;99.90
32612;DHT22;19030;49.478;8.986;2023-11-19T10:03:47;15.20;99.90
32612;DHT22;19030;49.478;8.986;2023-11-19T10:05:47;15.40;99.90
32612;DHT22;19030;49.478;8.986;2023-11-19T10:07:48;15.20;99.90
32612;DHT22;19030;49.478;8.986;2023-11-19T10:09:49;15.00;99.90
32612;DHT22;19030;49.478;8.986;2023-11-19T10:11:50;14.80;99.90
32612;DHT22;19030;49.478;8.986;2023-11-19T10:13:53;14.60;99.90
32612;DHT22;19030;49.478;8.986;2023-11-19T10:15:55;14.40;99.90
32612;DHT22;19030;49.478;8.986;2023-11-19T10:17:57;14.10;99.90
32612;DHT22;19030;49.478;8.986;2023-11-19T10:19:58;14.00;99.90
32612;DHT22;19030;49.478;8.986;2023-11-19T10:22:06;13.90;99.90
32612;DHT22;19030;49.478;8.986;2023-11-19T10:24:06;13.80;99.90
32612;DHT22;19030;49.478;8.986;2023-11-19T10:26:07;13.80;99.90
32612;DHT22;19030;49.478;8.986;2023-11-19T10:28:08;13.70;99.90
32612;DHT22;19030;49.478;8.986;2023-11-19T10:30:09;13.60;99.90
32612;DHT22;19030;49.478;8.986;2023-11-19T10:32:12;13.50;99.90
32612;DHT22;19030;49.478;8.986;2023-11-19T10:34:25;13.50;99.90
32612;DHT22;19030;49.478;8.986;2023-11-19T10:36:38;13.40;99.90
32612;DHT22;19030;49.478;8.986;2023-11-19T10:38:54;13.40;99.90
32612;DHT22;19030;49.478;8.986;2023-11-19T10:40:55;13.30;99.90
32612;DHT22;19030;49.478;8.986;2023-11-19T10:43:02;13.30;99.90
32612;DHT22;19030;49.478;8.986;2023-11-19T10:45:03;13.30;99.90
32612;DHT22;19030;49.478;8.986;2023-11-19T10:47:05;13.40;99.90
32612;DHT22;19030;49.478;8.986;2023-11-19T10:49:08;13.50;99.90
32612;DHT22;19030;49.478;8.986;2023-11-19T10:51:09;13.70;99.90
32612;DHT22;19030;49.478;8.986;2023-11-19T10:53:12;14.10;99.90
32612;DHT22;19030;49.478;8.986;2023-11-19T10:55:18;14.70;99.90
32612;DHT22;19030;49.478;8.986;2023-11-19T10:57:21;15.30;99.90
32612;DHT22;19030;49.478;8.986;2023-11-19T10:59:22;15.30;99.90
32612;DHT22;19030;49.478;8.986;2023-11-19T11:01:24;15.90;99.90
32612;DHT22;19030;49.478;8.986;2023-11-19T11:03:26;16.10;99.90
32612;DHT22;19030;49.478;8.986;2023-11-19T11:05:32;16.20;99.90
32612;DHT22;19030;49.478;8.986;2023-11-19T11:07:34;17.80;99.90
32612;DHT22;19030;49.478;8.986;2023-11-19T11:09:35;18.40;99.90
32612;DHT22;19030;49.478;8.986;2023-11-19T11:11:36;18.10;99.90
32612;DHT22;19030;49.478;8.986;2023-11-19T11:13:42;17.60;99.90
32612;DHT22;19030;49.478;8.986;2023-11-19T11:15:42;17.10;99.90
32612;DHT22;19030;49.478;8.986;2023-11-19T11:17:45;16.90;99.90
32612;DHT22;19030;49.478;8.986;2023-11-19T11:19:46;16.80;99.90
32612;DHT22;19030;49.478;8.986;2023-11-19T11:21:51;16.60;99.90
32612;DHT22;19030;49.478;8.986;2023-11-19T11:24:16;16.30;99.90
32612;DHT22;19030;49.478;8.986;2023-11-19T11:29:02;15.40;99.90
32612;DHT22;19030;49.478;8.986;2023-11-19T11:35:50;14.90;99.90
32612;DHT22;19030;49.478;8.986;2023-11-19T11:38:06;14.80;99.90
32612;DHT22;19030;49.478;8.986;2023-11-19T11:40:16;14.50;99.90
32612;DHT22;19030;49.478;8.986;2023-11-19T11:44:57;14.10;99.90
32612;DHT22;19030;49.478;8.986;2023-11-19T11:46:58;14.00;99.90
32612;DHT22;19030;49.478;8.986;2023-11-19T11:49:04;14.00;99.90
32612;DHT22;19030;49.478;8.986;2023-11-19T11:51:04;14.10;99.90
32612;DHT22;19030;49.478;8.986;2023-11-19T11:55:06;14.60;99.90
32612;DHT22;19030;49.478;8.986;2023-11-19T11:57:13;14.70;99.90
32612;DHT22;19030;49.478;8.986;2023-11-19T11:59:20;15.00;99.90
32612;DHT22;19030;49.478;8.986;2023-11-19T12:01:20;15.40;99.90
32612;DHT22;19030;49.478;8.986;2023-11-19T12:03:21;16.30;99.90
32612;DHT22;19030;49.478;8.986;2023-11-19T12:05:23;17.20;99.90
32612;DHT22;19030;49.478;8.986;2023-11-19T12:07:24;17.90;99.90
32612;DHT22;19030;49.478;8.986;2023-11-19T12:09:25;18.70;99.90
32612;DHT22;19030;49.478;8.986;2023-11-19T12:11:26;18.60;99.90
32612;DHT22;19030;49.478;8.986;2023-11-19T12:13:47;18.60;99.90
32612;DHT22;19030;49.478;8.986;2023-11-19T12:17:58;18.20;99.90
32612;DHT22;19030;49.478;8.986;2023-11-19T12:20:05;18.00;99.90
32612;DHT22;19030;49.478;8.986;2023-11-19T12:22:11;18.60;99.90
32612;DHT22;19030;49.478;8.986;2023-11-19T12:24:11;20.20;99.90
32612;DHT22;19030;49.478;8.986;2023-11-19T12:26:34;21.90;99.90
32612;DHT22;19030;49.478;8.986;2023-11-19T12:28:35;23.90;99.90
32612;DHT22;19030;49.478;8.986;2023-11-19T12:30:35;25.10;92.90
32612;DHT22;19030;49.478;8.986;2023-11-19T12:32:43;23.80;91.40
32612;DHT22;19030;49.478;8.986;2023-11-19T12:34:45;22.50;93.10
32612;DHT22;19030;49.478;8.986;2023-11-19T12:36:45;21.20;96.10
32612;DHT22;19030;49.478;8.986;2023-11-19T12:38:46;20.00;97.80
32612;DHT22;19030;49.478;8.986;2023-11-19T12:40:47;18.90;99.90
32612;DHT22;19030;49.478;8.986;2023-11-19T12:42:52;18.00;99.90
32612;DHT22;19030;49.478;8.986;2023-11-19T12:44:55;17.20;99.90
32612;DHT22;19030;49.478;8.986;2023-11-19T12:47:06;16.60;99.90
32612;DHT22;19030;49.478;8.986;2023-11-19T12:49:07;16.20;99.90
32612;DHT22;19030;49.478;8.986;2023-11-19T12:51:11;15.90;99.90
32612;DHT22;19030;49.478;8.986;2023-11-19T12:53:11;15.60;99.90
32612;DHT22;19030;49.478;8.986;2023-11-19T12:55:30;15.50;99.90
32612;DHT22;19030;49.478;8.986;2023-11-19T12:57:40;15.40;99.90
32612;DHT22;19030;49.478;8.986;2023-11-19T12:59:41;15.40;99.90
32612;DHT22;19030;49.478;8.986;2023-11-19T13:01:42;15.40;99.90
32612;DHT22;19030;49.478;8.986;2023-11-19T13:03:53;15.50;99.90
32612;DHT22;19030;49.478;8.986;2023-11-19T13:06:04;16.50;99.90
32612;DHT22;19030;49.478;8.986;2023-11-19T13:08:07;17.50;99.90
32612;DHT22;19030;49.478;8.986;2023-11-19T13:10:08;17.80;99.90